sensor_id;sensor_type;location;lat;lon;timestamp;temperature;humidity
20722;DHT22;10522;52.198;9.890;2023-02-15T00:01:41;2.90;99.90
20722;DHT22;10522;52.198;9.890;2023-02-15T00:04:08;3.00;99.90
20722;DHT22;10522;52.198;9.890;2023-02-15T00:06:34;3.10;99.90
20722;DHT22;10522;52.198;9.890;2023-02-15T00:09:00;3.20;99.90
20722;DHT22;10522;52.198;9.890;2023-02-15T00:11:27;3.10;99.90
20722;DHT22;10522;52.198;9.890;2023-02-15T00:14:12;3.10;99.90
20722;DHT22;10522;52.198;9.890;2023-02-15T00:16:39;2.90;99.90
20722;DHT22;10522;52.198;9.890;2023-02-15T00:19:05;2.70;99.90
20722;DHT22;10522;52.198;9.890;2023-02-15T00:21:32;2.70;99.90
20722;DHT22;10522;52.198;9.890;2023-02-15T00:23:59;2.80;99.90
20722;DHT22;10522;52.198;9.890;2023-02-15T00:26:25;2.70;99.90
20722;DHT22;10522;52.198;9.890;2023-02-15T00:28:52;2.70;99.90
20722;DHT22;10522;52.198;9.890;2023-02-15T00:31:19;2.60;99.90
20722;DHT22;10522;52.198;9.890;2023-02-15T00:33:45;2.20;99.90
20722;DHT22;10522;52.198;9.890;2023-02-15T00:36:11;2.20;99.90
20722;DHT22;10522;52.198;9.890;2023-02-15T00:38:37;2.30;99.90
20722;DHT22;10522;52.198;9.890;2023-02-15T00:41:04;2.30;99.90
20722;DHT22;10522;52.198;9.890;2023-02-15T00:43:32;2.40;99.90
20722;DHT22;10522;52.198;9.890;2023-02-15T00:45:58;2.20;99.90
20722;DHT22;10522;52.198;9.890;2023-02-15T00:48:24;2.10;99.90
20722;DHT22;10522;52.198;9.890;2023-02-15T00:50:52;2.30;99.90
20722;DHT22;10522;52.198;9.890;2023-02-15T00:53:18;2.40;99.90
20722;DHT22;10522;52.198;9.890;2023-02-15T00:55:44;2.40;99.90
20722;DHT22;10522;52.198;9.890;2023-02-15T00:58:11;2.40;99.90
20722;DHT22;10522;52.198;9.890;2023-02-15T01:00:37;2.50;99.90
20722;DHT22;10522;52.198;9.890;2023-02-15T01:03:03;2.40;99.90
20722;DHT22;10522;52.198;9.890;2023-02-15T01:05:29;2.00;99.90
20722;DHT22;10522;52.198;9.890;2023-02-15T01:07:55;2.20;99.90
20722;DHT22;10522;52.198;9.890;2023-02-15T01:10:21;2.20;99.90
20722;DHT22;10522;52.198;9.890;2023-02-15T01:12:47;2.70;99.90
20722;DHT22;10522;52.198;9.890;2023-02-15T01:15:14;3.00;99.90
20722;DHT22;10522;52.198;9.890;2023-02-15T01:17:40;3.30;99.90
20722;DHT22;10522;52.198;9.890;2023-02-15T01:20:06;3.40;99.90
20722;DHT22;10522;52.198;9.890;2023-02-15T01:22:32;3.60;99.90
20722;DHT22;10522;52.198;9.890;2023-02-15T01:24:57;3.50;99.90
20722;DHT22;10522;52.198;9.890;2023-02-15T01:27:23;3.30;99.90
20722;DHT22;10522;52.198;9.890;2023-02-15T01:29:48;3.10;99.90
20722;DHT22;10522;52.198;9.890;2023-02-15T01:32:14;2.90;99.90
20722;DHT22;10522;52.198;9.890;2023-02-15T01:34:40;2.70;99.90
20722;DHT22;10522;52.198;9.890;2023-02-15T01:37:05;2.50;99.90
20722;DHT22;10522;52.198;9.890;2023-02-15T01:39:31;2.30;99.90
20722;DHT22;10522;52.198;9.890;2023-02-15T01:41:56;2.20;99.90
20722;DHT22;10522;52.198;9.890;2023-02-15T01:44:48;2.10;99.90
20722;DHT22;10522;52.198;9.890;2023-02-15T01:47:18;1.90;99.90
20722;DHT22;10522;52.198;9.890;2023-02-15T01:49:46;1.90;99.90
20722;DHT22;10522;52.198;9.890;2023-02-15T01:52:16;1.90;99.90
20722;DHT22;10522;52.198;9.890;2023-02-15T01:54:43;1.60;99.90
20722;DHT22;10522;52.198;9.890;2023-02-15T01:57:16;1.50;99.90
20722;DHT22;10522;52.198;9.890;2023-02-15T01:59:46;1.50;99.90
20722;DHT22;10522;52.198;9.890;2023-02-15T02:02:14;1.50;99.90
20722;DHT22;10522;52.198;9.890;2023-02-15T02:04:50;1.30;99.90
20722;DHT22;10522;52.198;9.890;2023-02-15T02:07:19;1.20;99.90
20722;DHT22;10522;52.198;9.890;2023-02-15T02:09:46;1.10;99.90
20722;DHT22;10522;52.198;9.890;2023-02-15T02:12:12;1.10;99.90
20722;DHT22;10522;52.198;9.890;2023-02-15T02:14:38;1.30;99.90
20722;DHT22;10522;52.198;9.890;2023-02-15T02:20:27;1.40;99.90
20722;DHT22;10522;52.198;9.890;2023-02-15T02:23:04;1.40;99.90
20722;DHT22;10522;52.198;9.890;2023-02-15T02:28:28;1.20;99.90
20722;DHT22;10522;52.198;9.890;2023-02-15T02:36:42;1.20;99.90
20722;DHT22;10522;52.198;9.890;2023-02-15T02:47:12;1.40;99.90
20722;DHT22;10522;52.198;9.890;2023-02-15T02:49:40;1.30;99.90
20722;DHT22;10522;52.198;9.890;2023-02-15T02:55:49;1.20;99.90
20722;DHT22;10522;52.198;9.890;2023-02-15T03:00:25;1.00;99.90
20722;DHT22;10522;52.198;9.890;2023-02-15T03:02:59;1.00;99.90
20722;DHT22;10522;52.198;9.890;2023-02-15T03:05:31;1.00;99.90
20722;DHT22;10522;52.198;9.890;2023-02-15T03:07:58;0.90;99.90
20722;DHT22;10522;52.198;9.890;2023-02-15T03:10:31;0.80;99.90
20722;DHT22;10522;52.198;9.890;2023-02-15T03:12:58;0.90;99.90
20722;DHT22;10522;52.198;9.890;2023-02-15T03:15:29;0.90;99.90
20722;DHT22;10522;52.198;9.890;2023-02-15T03:18:18;0.70;99.90
20722;DHT22;10522;52.198;9.890;2023-02-15T03:20:46;0.70;99.90
20722;DHT22;10522;52.198;9.890;2023-02-15T03:23:18;0.60;99.90
20722;DHT22;10522;52.198;9.890;2023-02-15T03:26:01;0.60;99.90
20722;DHT22;10522;52.198;9.890;2023-02-15T03:28:36;0.60;99.90
20722;DHT22;10522;52.198;9.890;2023-02-15T03:31:06;0.60;99.90
20722;DHT22;10522;52.198;9.890;2023-02-15T03:33:34;0.50;99.90
20722;DHT22;10522;52.198;9.890;2023-02-15T03:36:08;0.50;99.90
20722;DHT22;10522;52.198;9.890;2023-02-15T03:38:57;0.50;99.90
20722;DHT22;10522;52.198;9.890;2023-02-15T03:41:30;0.40;99.90
20722;DHT22;10522;52.198;9.890;2023-02-15T03:44:06;0.40;99.90
20722;DHT22;10522;52.198;9.890;2023-02-15T03:46:52;0.40;99.90
20722;DHT22;10522;52.198;9.890;2023-02-15T03:49:23;0.30;99.90
20722;DHT22;10522;52.198;9.890;2023-02-15T03:51:52;0.20;99.90
20722;DHT22;10522;52.198;9.890;2023-02-15T03:54:22;0.20;99.90
20722;DHT22;10522;52.198;9.890;2023-02-15T04:00:02;0.10;99.90
20722;DHT22;10522;52.198;9.890;2023-02-15T04:05:30;0.10;99.90
20722;DHT22;10522;52.198;9.890;2023-02-15T04:07:56;0.20;99.90
20722;DHT22;10522;52.198;9.890;2023-02-15T04:10:21;0.20;99.90
20722;DHT22;10522;52.198;9.890;2023-02-15T04:13:05;0.20;99.90
20722;DHT22;10522;52.198;9.890;2023-02-15T04:15:31;0.30;99.90
20722;DHT22;10522;52.198;9.890;2023-02-15T04:18:15;0.30;99.90
20722;DHT22;10522;52.198;9.890;2023-02-15T04:20:44;0.40;99.90
20722;DHT22;10522;52.198;9.890;2023-02-15T04:23:28;0.50;99.90
20722;DHT22;10522;52.198;9.890;2023-02-15T04:26:12;0.40;99.90
20722;DHT22;10522;52.198;9.890;2023-02-15T04:28:37;0.40;99.90
20722;DHT22;10522;52.198;9.890;2023-02-15T04:31:03;0.40;99.90
20722;DHT22;10522;52.198;9.890;2023-02-15T04:33:29;0.40;99.90
20722;DHT22;10522;52.198;9.890;2023-02-15T04:35:54;0.30;99.90
20722;DHT22;10522;52.198;9.890;2023-02-15T04:38:20;0.30;99.90
20722;DHT22;10522;52.198;9.890;2023-02-15T04:40:50;0.30;99.90
20722;DHT22;10522;52.198;9.890;2023-02-15T04:43:17;0.30;99.90
20722;DHT22;10522;52.198;9.890;2023-02-15T04:45:48;0.20;99.90
20722;DHT22;10522;52.198;9.890;2023-02-15T04:48:15;0.10;99.90
20722;DHT22;10522;52.198;9.890;2023-02-15T04:50:41;0.10;99.90
20722;DHT22;10522;52.198;9.890;2023-02-15T04:53:07;0.00;99.90
20722;DHT22;10522;52.198;9.890;2023-02-15T04:55:32;-0.10;99.90
20722;DHT22;10522;52.198;9.890;2023-02-15T04:57:58;0.00;99.90
20722;DHT22;10522;52.198;9.890;2023-02-15T05:00:23;-0.10;99.90
20722;DHT22;10522;52.198;9.890;2023-02-15T05:02:49;-0.30;99.90
20722;DHT22;10522;52.198;9.890;2023-02-15T05:05:15;-0.40;99.90
20722;DHT22;10522;52.198;9.890;2023-02-15T05:07:40;-0.30;99.90
20722;DHT22;10522;52.198;9.890;2023-02-15T05:10:06;-0.30;99.90
20722;DHT22;10522;52.198;9.890;2023-02-15T05:12:32;-0.20;99.90
20722;DHT22;10522;52.198;9.890;2023-02-15T05:14:58;-0.30;99.90
20722;DHT22;10522;52.198;9.890;2023-02-15T05:17:23;-0.30;99.90
20722;DHT22;10522;52.198;9.890;2023-02-15T05:19:49;-0.30;99.90
20722;DHT22;10522;52.198;9.890;2023-02-15T05:22:14;-0.30;99.90
20722;DHT22;10522;52.198;9.890;2023-02-15T05:24:40;-0.40;99.90
20722;DHT22;10522;52.198;9.890;2023-02-15T05:27:24;-0.40;99.90
20722;DHT22;10522;52.198;9.890;2023-02-15T05:30:08;-0.50;99.90
20722;DHT22;10522;52.198;9.890;2023-02-15T05:32:37;-0.50;99.90
20722;DHT22;10522;52.198;9.890;2023-02-15T05:35:04;-0.50;99.90
20722;DHT22;10522;52.198;9.890;2023-02-15T05:37:30;-0.60;99.90
20722;DHT22;10522;52.198;9.890;2023-02-15T05:39:56;-0.60;99.90
20722;DHT22;10522;52.198;9.890;2023-02-15T05:42:21;-0.60;99.90
20722;DHT22;10522;52.198;9.890;2023-02-15T05:44:47;-0.60;99.90
20722;DHT22;10522;52.198;9.890;2023-02-15T05:47:15;-0.50;99.90
20722;DHT22;10522;52.198;9.890;2023-02-15T05:49:41;-0.50;99.90
20722;DHT22;10522;52.198;9.890;2023-02-15T05:52:07;-0.50;99.90
20722;DHT22;10522;52.198;9.890;2023-02-15T05:54:33;-0.50;99.90
20722;DHT22;10522;52.198;9.890;2023-02-15T05:56:59;-0.50;99.90
20722;DHT22;10522;52.198;9.890;2023-02-15T05:59:25;-0.40;99.90
20722;DHT22;10522;52.198;9.890;2023-02-15T06:01:50;-0.50;99.90
20722;DHT22;10522;52.198;9.890;2023-02-15T06:04:16;-0.50;99.90
20722;DHT22;10522;52.198;9.890;2023-02-15T06:06:42;-0.50;99.90
20722;DHT22;10522;52.198;9.890;2023-02-15T06:09:07;-0.40;99.90
20722;DHT22;10522;52.198;9.890;2023-02-15T06:11:33;-0.50;99.90
20722;DHT22;10522;52.198;9.890;2023-02-15T06:13:58;-0.60;99.90
20722;DHT22;10522;52.198;9.890;2023-02-15T06:16:24;-0.60;99.90
20722;DHT22;10522;52.198;9.890;2023-02-15T06:18:50;-0.70;99.90
20722;DHT22;10522;52.198;9.890;2023-02-15T06:21:15;-0.70;99.90
20722;DHT22;10522;52.198;9.890;2023-02-15T06:23:41;-0.70;99.90
20722;DHT22;10522;52.198;9.890;2023-02-15T06:26:07;-0.70;99.90
20722;DHT22;10522;52.198;9.890;2023-02-15T06:28:33;-0.60;99.90
20722;DHT22;10522;52.198;9.890;2023-02-15T06:30:59;-0.70;99.90
20722;DHT22;10522;52.198;9.890;2023-02-15T06:33:26;-0.80;99.90
20722;DHT22;10522;52.198;9.890;2023-02-15T06:35:52;-1.00;99.90
20722;DHT22;10522;52.198;9.890;2023-02-15T06:38:18;-0.90;99.90
20722;DHT22;10522;52.198;9.890;2023-02-15T06:40:44;-0.90;99.90
20722;DHT22;10522;52.198;9.890;2023-02-15T06:43:10;-0.70;99.90
20722;DHT22;10522;52.198;9.890;2023-02-15T06:45:35;-0.70;99.90
20722;DHT22;10522;52.198;9.890;2023-02-15T06:48:01;-0.70;99.90
20722;DHT22;10522;52.198;9.890;2023-02-15T06:50:26;-0.60;99.90
20722;DHT22;10522;52.198;9.890;2023-02-15T06:52:57;-0.50;99.90
20722;DHT22;10522;52.198;9.890;2023-02-15T06:55:22;-0.50;99.90
20722;DHT22;10522;52.198;9.890;2023-02-15T06:57:48;-0.50;99.90
20722;DHT22;10522;52.198;9.890;2023-02-15T07:00:14;-0.50;99.90
20722;DHT22;10522;52.198;9.890;2023-02-15T07:02:40;-0.40;99.90
20722;DHT22;10522;52.198;9.890;2023-02-15T07:05:06;-0.50;99.90
20722;DHT22;10522;52.198;9.890;2023-02-15T07:07:31;-0.60;99.90
20722;DHT22;10522;52.198;9.890;2023-02-15T07:09:57;-0.70;99.90
20722;DHT22;10522;52.198;9.890;2023-02-15T07:12:22;-0.70;99.90
20722;DHT22;10522;52.198;9.890;2023-02-15T07:15:07;-0.70;99.90
20722;DHT22;10522;52.198;9.890;2023-02-15T07:17:34;-0.80;99.90
20722;DHT22;10522;52.198;9.890;2023-02-15T07:20:01;-0.70;99.90
20722;DHT22;10522;52.198;9.890;2023-02-15T07:22:27;-0.80;99.90
20722;DHT22;10522;52.198;9.890;2023-02-15T07:24:53;-0.70;99.90
20722;DHT22;10522;52.198;9.890;2023-02-15T07:27:20;-0.60;99.90
20722;DHT22;10522;52.198;9.890;2023-02-15T07:29:46;-0.50;99.90
20722;DHT22;10522;52.198;9.890;2023-02-15T07:32:12;-0.50;99.90
20722;DHT22;10522;52.198;9.890;2023-02-15T07:34:37;-0.50;99.90
20722;DHT22;10522;52.198;9.890;2023-02-15T07:37:03;-0.40;99.90
20722;DHT22;10522;52.198;9.890;2023-02-15T07:39:29;-0.40;99.90
20722;DHT22;10522;52.198;9.890;2023-02-15T07:41:55;-0.30;99.90
20722;DHT22;10522;52.198;9.890;2023-02-15T07:44:21;-0.20;99.90
20722;DHT22;10522;52.198;9.890;2023-02-15T07:46:46;-0.10;99.90
20722;DHT22;10522;52.198;9.890;2023-02-15T07:49:13;-0.10;99.90
20722;DHT22;10522;52.198;9.890;2023-02-15T07:51:39;0.00;99.90
20722;DHT22;10522;52.198;9.890;2023-02-15T07:54:06;0.10;99.90
20722;DHT22;10522;52.198;9.890;2023-02-15T07:56:32;0.30;99.90
20722;DHT22;10522;52.198;9.890;2023-02-15T07:58:58;0.40;99.90
20722;DHT22;10522;52.198;9.890;2023-02-15T08:01:31;0.50;99.90
20722;DHT22;10522;52.198;9.890;2023-02-15T08:03:58;0.50;99.90
20722;DHT22;10522;52.198;9.890;2023-02-15T08:06:26;0.60;99.90
20722;DHT22;10522;52.198;9.890;2023-02-15T08:08:52;0.80;99.90
20722;DHT22;10522;52.198;9.890;2023-02-15T08:11:21;0.80;99.90
20722;DHT22;10522;52.198;9.890;2023-02-15T08:14:13;0.90;99.90
20722;DHT22;10522;52.198;9.890;2023-02-15T08:16:44;1.00;99.90
20722;DHT22;10522;52.198;9.890;2023-02-15T08:19:24;1.10;99.90
20722;DHT22;10522;52.198;9.890;2023-02-15T08:21:53;1.20;99.90
20722;DHT22;10522;52.198;9.890;2023-02-15T08:24:20;1.00;99.90
20722;DHT22;10522;52.198;9.890;2023-02-15T08:26:47;1.20;99.90
20722;DHT22;10522;52.198;9.890;2023-02-15T08:29:14;1.30;99.90
20722;DHT22;10522;52.198;9.890;2023-02-15T08:31:41;1.30;99.90
20722;DHT22;10522;52.198;9.890;2023-02-15T08:34:08;1.40;99.90
20722;DHT22;10522;52.198;9.890;2023-02-15T08:36:34;1.60;99.90
20722;DHT22;10522;52.198;9.890;2023-02-15T08:39:01;1.60;99.90
20722;DHT22;10522;52.198;9.890;2023-02-15T08:41:30;1.60;99.90
20722;DHT22;10522;52.198;9.890;2023-02-15T08:43:59;1.70;99.90
20722;DHT22;10522;52.198;9.890;2023-02-15T08:46:27;1.80;99.90
20722;DHT22;10522;52.198;9.890;2023-02-15T08:48:53;2.00;99.90
20722;DHT22;10522;52.198;9.890;2023-02-15T08:51:21;2.30;99.90
20722;DHT22;10522;52.198;9.890;2023-02-15T08:53:50;2.50;99.90
20722;DHT22;10522;52.198;9.890;2023-02-15T08:56:17;2.50;99.90
20722;DHT22;10522;52.198;9.890;2023-02-15T08:58:43;2.60;99.90
20722;DHT22;10522;52.198;9.890;2023-02-15T09:01:10;2.70;99.90
20722;DHT22;10522;52.198;9.890;2023-02-15T09:03:36;2.80;99.90
20722;DHT22;10522;52.198;9.890;2023-02-15T09:06:02;2.80;99.90
20722;DHT22;10522;52.198;9.890;2023-02-15T09:08:28;3.00;99.90
20722;DHT22;10522;52.198;9.890;2023-02-15T09:10:54;3.10;99.90
20722;DHT22;10522;52.198;9.890;2023-02-15T09:13:20;3.30;99.90
20722;DHT22;10522;52.198;9.890;2023-02-15T09:15:46;3.40;99.90
20722;DHT22;10522;52.198;9.890;2023-02-15T09:18:12;3.60;99.90
20722;DHT22;10522;52.198;9.890;2023-02-15T09:20:43;3.70;99.90
20722;DHT22;10522;52.198;9.890;2023-02-15T09:23:09;3.80;99.90
20722;DHT22;10522;52.198;9.890;2023-02-15T09:25:35;3.80;99.90
20722;DHT22;10522;52.198;9.890;2023-02-15T09:28:00;3.70;99.90
20722;DHT22;10522;52.198;9.890;2023-02-15T09:30:26;3.70;99.90
20722;DHT22;10522;52.198;9.890;2023-02-15T09:32:52;3.80;99.90
20722;DHT22;10522;52.198;9.890;2023-02-15T09:35:17;3.80;99.90
20722;DHT22;10522;52.198;9.890;2023-02-15T09:37:43;3.80;99.90
20722;DHT22;10522;52.198;9.890;2023-02-15T09:40:12;4.00;99.90
20722;DHT22;10522;52.198;9.890;2023-02-15T09:48:35;4.20;99.90
20722;DHT22;10522;52.198;9.890;2023-02-15T09:56:55;4.20;99.90
20722;DHT22;10522;52.198;9.890;2023-02-15T09:59:57;4.20;99.90
20722;DHT22;10522;52.198;9.890;2023-02-15T10:10:46;4.90;99.90
20722;DHT22;10522;52.198;9.890;2023-02-15T10:13:34;5.20;99.90
20722;DHT22;10522;52.198;9.890;2023-02-15T10:21:54;5.40;99.90
20722;DHT22;10522;52.198;9.890;2023-02-15T10:27:19;5.50;99.90
20722;DHT22;10522;52.198;9.890;2023-02-15T10:30:09;5.50;99.90
20722;DHT22;10522;52.198;9.890;2023-02-15T10:35:35;5.60;99.90
20722;DHT22;10522;52.198;9.890;2023-02-15T10:38:30;5.50;99.90
20722;DHT22;10522;52.198;9.890;2023-02-15T10:46:49;5.60;99.90
20722;DHT22;10522;52.198;9.890;2023-02-15T10:52:20;5.80;99.90
20722;DHT22;10522;52.198;9.890;2023-02-15T10:55:36;5.70;99.90
20722;DHT22;10522;52.198;9.890;2023-02-15T10:58:24;5.90;99.90
20722;DHT22;10522;52.198;9.890;2023-02-15T11:01:18;5.90;99.90
20722;DHT22;10522;52.198;9.890;2023-02-15T11:06:52;6.30;99.90
20722;DHT22;10522;52.198;9.890;2023-02-15T11:09:20;6.10;99.90
20722;DHT22;10522;52.198;9.890;2023-02-15T11:11:50;6.20;99.90
20722;DHT22;10522;52.198;9.890;2023-02-15T11:14:52;6.20;99.90
20722;DHT22;10522;52.198;9.890;2023-02-15T11:17:43;6.30;99.90
20722;DHT22;10522;52.198;9.890;2023-02-15T11:23:02;6.40;99.90
20722;DHT22;10522;52.198;9.890;2023-02-15T11:25:30;6.40;99.90
20722;DHT22;10522;52.198;9.890;2023-02-15T11:27:58;6.40;99.90
20722;DHT22;10522;52.198;9.890;2023-02-15T11:30:29;6.50;99.90
20722;DHT22;10522;52.198;9.890;2023-02-15T11:33:01;6.60;99.90
20722;DHT22;10522;52.198;9.890;2023-02-15T11:35:31;6.80;99.90
20722;DHT22;10522;52.198;9.890;2023-02-15T11:38:16;6.90;99.90
20722;DHT22;10522;52.198;9.890;2023-02-15T11:40:48;6.90;99.90
20722;DHT22;10522;52.198;9.890;2023-02-15T11:43:33;7.10;99.90
20722;DHT22;10522;52.198;9.890;2023-02-15T11:46:00;7.30;99.90
20722;DHT22;10522;52.198;9.890;2023-02-15T11:48:25;7.60;99.90
20722;DHT22;10522;52.198;9.890;2023-02-15T11:50:51;7.40;99.90
20722;DHT22;10522;52.198;9.890;2023-02-15T11:53:19;7.40;99.90
20722;DHT22;10522;52.198;9.890;2023-02-15T11:55:53;7.50;99.90
20722;DHT22;10522;52.198;9.890;2023-02-15T11:58:28;7.50;99.90
20722;DHT22;10522;52.198;9.890;2023-02-15T12:01:21;7.70;99.90
20722;DHT22;10522;52.198;9.890;2023-02-15T12:03:50;7.50;99.90
20722;DHT22;10522;52.198;9.890;2023-02-15T12:06:30;7.80;99.90
20722;DHT22;10522;52.198;9.890;2023-02-15T12:12:35;8.00;99.90
20722;DHT22;10522;52.198;9.890;2023-02-15T12:15:04;8.10;99.90
20722;DHT22;10522;52.198;9.890;2023-02-15T12:17:33;8.10;99.90
20722;DHT22;10522;52.198;9.890;2023-02-15T12:22:52;8.20;99.90
20722;DHT22;10522;52.198;9.890;2023-02-15T12:25:35;8.20;99.90
20722;DHT22;10522;52.198;9.890;2023-02-15T12:28:02;8.10;99.90
20722;DHT22;10522;52.198;9.890;2023-02-15T12:30:35;8.10;99.90
20722;DHT22;10522;52.198;9.890;2023-02-15T12:33:21;8.20;99.90
20722;DHT22;10522;52.198;9.890;2023-02-15T12:35:59;8.20;99.90
20722;DHT22;10522;52.198;9.890;2023-02-15T12:38:27;8.10;99.90
20722;DHT22;10522;52.198;9.890;2023-02-15T12:41:02;8.30;99.90
20722;DHT22;10522;52.198;9.890;2023-02-15T12:43:37;8.30;99.90
20722;DHT22;10522;52.198;9.890;2023-02-15T12:46:24;8.40;99.90
20722;DHT22;10522;52.198;9.890;2023-02-15T12:51:49;8.40;99.90
20722;DHT22;10522;52.198;9.890;2023-02-15T12:54:38;8.40;99.90
20722;DHT22;10522;52.198;9.890;2023-02-15T12:57:28;8.60;99.90
20722;DHT22;10522;52.198;9.890;2023-02-15T12:59:58;8.60;99.90
20722;DHT22;10522;52.198;9.890;2023-02-15T13:05:18;8.60;99.90
20722;DHT22;10522;52.198;9.890;2023-02-15T13:07:53;8.70;99.90
20722;DHT22;10522;52.198;9.890;2023-02-15T13:10:58;8.70;99.90
20722;DHT22;10522;52.198;9.890;2023-02-15T13:13:27;8.80;99.90
20722;DHT22;10522;52.198;9.890;2023-02-15T13:15:59;8.80;99.90
20722;DHT22;10522;52.198;9.890;2023-02-15T13:18:38;9.10;99.90
20722;DHT22;10522;52.198;9.890;2023-02-15T13:21:16;9.10;99.90
20722;DHT22;10522;52.198;9.890;2023-02-15T13:24:12;9.10;99.90
20722;DHT22;10522;52.198;9.890;2023-02-15T13:26:41;9.10;99.90
20722;DHT22;10522;52.198;9.890;2023-02-15T13:29:22;9.20;99.90
20722;DHT22;10522;52.198;9.890;2023-02-15T13:31:50;9.10;99.90
20722;DHT22;10522;52.198;9.890;2023-02-15T13:34:25;9.20;99.90
20722;DHT22;10522;52.198;9.890;2023-02-15T13:37:01;9.10;99.90
20722;DHT22;10522;52.198;9.890;2023-02-15T13:40:02;8.90;99.90
20722;DHT22;10522;52.198;9.890;2023-02-15T13:42:48;9.00;99.90
20722;DHT22;10522;52.198;9.890;2023-02-15T13:48:24;9.20;99.90
20722;DHT22;10522;52.198;9.890;2023-02-15T13:59:19;9.30;99.90
20722;DHT22;10522;52.198;9.890;2023-02-15T14:04:50;9.60;99.90
20722;DHT22;10522;52.198;9.890;2023-02-15T14:08:17;9.70;99.90
20722;DHT22;10522;52.198;9.890;2023-02-15T14:10:50;9.80;99.90
20722;DHT22;10522;52.198;9.890;2023-02-15T14:13:55;10.10;99.90
20722;DHT22;10522;52.198;9.890;2023-02-15T14:16:41;10.30;99.90
20722;DHT22;10522;52.198;9.890;2023-02-15T14:25:20;10.00;99.90
20722;DHT22;10522;52.198;9.890;2023-02-15T14:28:04;9.70;99.90
20722;DHT22;10522;52.198;9.890;2023-02-15T14:30:37;9.50;99.90
20722;DHT22;10522;52.198;9.890;2023-02-15T14:35:40;9.50;99.90
20722;DHT22;10522;52.198;9.890;2023-02-15T14:48:48;9.30;99.90
20722;DHT22;10522;52.198;9.890;2023-02-15T14:54:07;9.40;99.90
20722;DHT22;10522;52.198;9.890;2023-02-15T14:56:32;9.30;99.90
20722;DHT22;10522;52.198;9.890;2023-02-15T15:01:55;9.30;99.90
20722;DHT22;10522;52.198;9.890;2023-02-15T15:04:27;9.40;99.90
20722;DHT22;10522;52.198;9.890;2023-02-15T15:07:18;9.40;99.90
20722;DHT22;10522;52.198;9.890;2023-02-15T15:09:48;9.50;99.90
20722;DHT22;10522;52.198;9.890;2023-02-15T15:14:49;9.20;99.90
20722;DHT22;10522;52.198;9.890;2023-02-15T15:20:12;9.20;99.90
20722;DHT22;10522;52.198;9.890;2023-02-15T15:22:42;9.50;99.90
20722;DHT22;10522;52.198;9.890;2023-02-15T15:28:03;10.30;99.90
20722;DHT22;10522;52.198;9.890;2023-02-15T15:35:37;10.80;99.90
20722;DHT22;10522;52.198;9.890;2023-02-15T15:41:08;11.40;99.90
20722;DHT22;10522;52.198;9.890;2023-02-15T15:49:08;11.20;99.90
20722;DHT22;10522;52.198;9.890;2023-02-15T15:51:48;10.70;99.90
20722;DHT22;10522;52.198;9.890;2023-02-15T15:54:38;10.00;99.90
20722;DHT22;10522;52.198;9.890;2023-02-15T15:57:05;9.40;99.90
20722;DHT22;10522;52.198;9.890;2023-02-15T15:59:50;9.40;99.90
20722;DHT22;10522;52.198;9.890;2023-02-15T16:02:28;9.60;99.90
20722;DHT22;10522;52.198;9.890;2023-02-15T16:04:54;9.30;99.90
20722;DHT22;10522;52.198;9.890;2023-02-15T16:09:55;8.60;99.90
20722;DHT22;10522;52.198;9.890;2023-02-15T16:12:21;8.10;99.90
20722;DHT22;10522;52.198;9.890;2023-02-15T16:14:48;7.80;99.90
20722;DHT22;10522;52.198;9.890;2023-02-15T16:17:23;7.60;99.90
20722;DHT22;10522;52.198;9.890;2023-02-15T16:19:50;7.20;99.90
20722;DHT22;10522;52.198;9.890;2023-02-15T16:22:23;6.90;99.90
20722;DHT22;10522;52.198;9.890;2023-02-15T16:25:12;6.70;99.90
20722;DHT22;10522;52.198;9.890;2023-02-15T16:27:42;6.50;99.90
20722;DHT22;10522;52.198;9.890;2023-02-15T16:30:28;6.40;99.90
20722;DHT22;10522;52.198;9.890;2023-02-15T16:33:15;6.10;99.90
20722;DHT22;10522;52.198;9.890;2023-02-15T16:35:55;6.00;99.90
20722;DHT22;10522;52.198;9.890;2023-02-15T16:41:20;5.60;99.90
20722;DHT22;10522;52.198;9.890;2023-02-15T16:43:49;5.30;99.90
20722;DHT22;10522;52.198;9.890;2023-02-15T16:46:26;5.20;99.90
20722;DHT22;10522;52.198;9.890;2023-02-15T16:48:55;5.20;99.90
20722;DHT22;10522;52.198;9.890;2023-02-15T16:51:25;5.10;99.90
20722;DHT22;10522;52.198;9.890;2023-02-15T16:53:52;5.30;99.90
20722;DHT22;10522;52.198;9.890;2023-02-15T16:56:23;5.20;99.90
20722;DHT22;10522;52.198;9.890;2023-02-15T16:58:51;5.10;99.90
20722;DHT22;10522;52.198;9.890;2023-02-15T17:01:22;5.00;99.90
20722;DHT22;10522;52.198;9.890;2023-02-15T17:03:50;4.80;99.90
20722;DHT22;10522;52.198;9.890;2023-02-15T17:06:26;4.60;99.90
20722;DHT22;10522;52.198;9.890;2023-02-15T17:09:04;4.40;99.90
20722;DHT22;10522;52.198;9.890;2023-02-15T17:11:36;4.30;99.90
20722;DHT22;10522;52.198;9.890;2023-02-15T17:16:35;4.30;99.90
20722;DHT22;10522;52.198;9.890;2023-02-15T17:19:08;4.30;99.90
20722;DHT22;10522;52.198;9.890;2023-02-15T17:21:41;4.10;99.90
20722;DHT22;10522;52.198;9.890;2023-02-15T17:24:16;4.10;99.90
20722;DHT22;10522;52.198;9.890;2023-02-15T17:26:42;4.10;99.90
20722;DHT22;10522;52.198;9.890;2023-02-15T17:29:22;4.40;99.90
20722;DHT22;10522;52.198;9.890;2023-02-15T17:31:51;4.70;99.90
20722;DHT22;10522;52.198;9.890;2023-02-15T17:37:29;4.70;99.90
20722;DHT22;10522;52.198;9.890;2023-02-15T17:39:56;4.60;99.90
20722;DHT22;10522;52.198;9.890;2023-02-15T17:42:22;4.40;99.90
20722;DHT22;10522;52.198;9.890;2023-02-15T17:44:48;4.30;99.90
20722;DHT22;10522;52.198;9.890;2023-02-15T17:47:20;4.20;99.90
20722;DHT22;10522;52.198;9.890;2023-02-15T17:49:48;4.10;99.90
20722;DHT22;10522;52.198;9.890;2023-02-15T17:52:17;4.20;99.90
20722;DHT22;10522;52.198;9.890;2023-02-15T17:54:43;4.30;99.90
20722;DHT22;10522;52.198;9.890;2023-02-15T17:57:28;4.00;99.90
20722;DHT22;10522;52.198;9.890;2023-02-15T17:59:54;3.80;99.90
20722;DHT22;10522;52.198;9.890;2023-02-15T18:02:38;3.80;99.90
20722;DHT22;10522;52.198;9.890;2023-02-15T18:05:23;3.40;99.90
20722;DHT22;10522;52.198;9.890;2023-02-15T18:08:15;3.20;99.90
20722;DHT22;10522;52.198;9.890;2023-02-15T18:11:00;3.20;99.90
20722;DHT22;10522;52.198;9.890;2023-02-15T18:13:45;3.00;99.90
20722;DHT22;10522;52.198;9.890;2023-02-15T18:16:16;2.80;99.90
20722;DHT22;10522;52.198;9.890;2023-02-15T18:18:44;2.90;99.90
20722;DHT22;10522;52.198;9.890;2023-02-15T18:21:10;2.60;99.90
20722;DHT22;10522;52.198;9.890;2023-02-15T18:23:37;2.70;99.90
20722;DHT22;10522;52.198;9.890;2023-02-15T18:26:03;2.60;99.90
20722;DHT22;10522;52.198;9.890;2023-02-15T18:28:28;2.60;99.90
20722;DHT22;10522;52.198;9.890;2023-02-15T18:30:54;2.60;99.90
20722;DHT22;10522;52.198;9.890;2023-02-15T18:33:33;2.60;99.90
20722;DHT22;10522;52.198;9.890;2023-02-15T18:36:02;2.60;99.90
20722;DHT22;10522;52.198;9.890;2023-02-15T18:38:29;2.50;99.90
20722;DHT22;10522;52.198;9.890;2023-02-15T18:40:55;2.70;99.90
20722;DHT22;10522;52.198;9.890;2023-02-15T18:43:20;2.60;99.90
20722;DHT22;10522;52.198;9.890;2023-02-15T18:45:46;2.60;99.90
20722;DHT22;10522;52.198;9.890;2023-02-15T18:48:12;2.80;99.90
20722;DHT22;10522;52.198;9.890;2023-02-15T18:50:39;2.90;99.90